Time;durP1;ratioP1;P1;durP2;ratioP2;P2;SDS_P1;SDS_P2;PMS_P1;PMS_P2;Temp;Humidity;BMP_temperature;BMP_pressure;BME280_temperature;BME280_humidity;BME280_pressure;Samples;Min_cycle;Max_cycle;Signal;HPM_P1;HPM_P2
2021/05/07 00:02:06;;;;;;;10.65;5.83;;;;;;;10.18;63.81;99185.26;2221441;78;28716;-62
2021/05/07 00:05:09;;;;;;;12.18;6.17;;;;;;;10.12;63.99;99184.31;2222312;79;33543;-62
2021/05/07 00:08:11;;;;;;;8.40;5.58;;;;;;;10.08;64.10;99184.63;2218539;78;33311;-61
2021/05/07 00:11:17;;;;;;;9.98;6.35;;;;;;;10.07;64.18;99190.93;2214292;78;28862;-61
2021/05/07 00:14:21;;;;;;;15.23;7.00;;;;;;;10.07;64.39;99181.10;2218160;78;27748;-61
2021/05/07 00:17:23;;;;;;;10.13;6.37;;;;;;;10.06;64.26;99190.55;2218968;79;28930;-61
2021/05/07 00:20:25;;;;;;;10.50;6.20;;;;;;;10.04;64.55;99188.83;2216692;78;31209;-62
2021/05/07 00:23:27;;;;;;;11.30;6.20;;;;;;;10.04;64.80;99190.17;2224122;79;34598;-61
2021/05/07 00:26:30;;;;;;;12.20;6.42;;;;;;;10.08;64.97;99192.65;2213660;79;31080;-61
2021/05/07 00:29:32;;;;;;;13.68;6.28;;;;;;;10.08;65.08;99189.97;2216329;79;27857;-61
2021/05/07 00:32:34;;;;;;;9.85;5.47;;;;;;;10.08;65.00;99184.16;2221835;78;30101;-61
2021/05/07 00:35:37;;;;;;;10.05;6.17;;;;;;;10.08;65.06;99180.14;2216985;78;32057;-61
2021/05/07 00:38:39;;;;;;;9.70;6.95;;;;;;;10.09;65.12;99175.17;2208998;78;33158;-62
2021/05/07 00:41:41;;;;;;;10.43;5.95;;;;;;;10.07;65.11;99166.38;2186531;81;29193;-61
2021/05/07 00:44:43;;;;;;;9.38;5.42;;;;;;;10.07;65.22;99170.86;2186814;81;28268;-61
2021/05/07 00:48:04;;;;;;;8.73;5.45;;;;;;;10.07;65.30;99166.84;2199508;80;29241;-61
2021/05/07 00:51:07;;;;;;;10.32;5.40;;;;;;;10.03;65.32;99159.02;2191470;80;31140;-62
2021/05/07 00:54:09;;;;;;;5.28;4.20;;;;;;;9.99;65.24;99164.22;2220702;80;33228;-62
2021/05/07 00:57:12;;;;;;;6.40;4.40;;;;;;;9.97;65.18;99167.93;2217997;80;29054;-61
2021/05/07 01:00:17;;;;;;;7.42;4.37;;;;;;;9.88;65.16;99163.58;2206515;80;27645;-62
2021/05/07 01:03:19;;;;;;;6.97;5.23;;;;;;;9.82;65.33;99165.30;2221205;80;28827;-61
2021/05/07 01:06:22;;;;;;;6.15;4.17;;;;;;;9.76;65.38;99151.01;2220907;80;31615;-62
2021/05/07 01:09:24;;;;;;;7.20;4.67;;;;;;;9.70;65.42;99149.56;2218610;80;33131;-62
2021/05/07 01:12:30;;;;;;;5.65;4.00;;;;;;;9.67;65.43;99141.77;2220976;80;29286;-62
2021/05/07 01:15:32;;;;;;;11.20;4.97;;;;;;;9.63;65.70;99138.91;2221026;80;27634;-61
2021/05/07 01:18:34;;;;;;;6.83;4.45;;;;;;;9.61;65.71;99142.14;2212639;80;28824;-61
2021/05/07 01:21:36;;;;;;;7.33;4.20;;;;;;;9.57;65.86;99129.47;2182081;81;31200;-61
2021/05/07 01:24:38;;;;;;;6.72;4.65;;;;;;;9.57;65.79;99125.91;2182104;81;34465;-61
2021/05/07 01:27:43;;;;;;;5.67;3.83;;;;;;;9.53;65.66;99124.39;2166679;80;28840;-60
2021/05/07 01:30:50;;;;;;;6.22;3.42;;;;;;;9.46;65.83;99120.41;2184934;80;27617;-61
2021/05/07 01:33:52;;;;;;;4.72;3.02;;;;;;;9.40;65.83;99121.17;2182191;81;28797;-61
2021/05/07 01:36:55;;;;;;;4.47;2.90;;;;;;;9.32;65.75;99110.59;2182153;81;31142;-62
2021/05/07 01:39:57;;;;;;;5.40;3.00;;;;;;;9.24;65.72;99105.73;2182222;78;33101;-62
2021/05/07 01:43:00;;;;;;;4.70;2.70;;;;;;;9.17;65.71;99096.41;2182356;80;28845;-61
2021/05/07 01:46:02;;;;;;;4.42;2.65;;;;;;;9.09;65.83;99091.06;2186958;80;28190;-61
2021/05/07 01:49:05;;;;;;;5.90;2.90;;;;;;;9.06;66.02;99089.91;2202885;80;29007;-61
2021/05/07 01:52:07;;;;;;;3.70;1.90;;;;;;;9.04;66.12;99093.64;2182275;81;32605;-62
2021/05/07 01:55:16;;;;;;;2.75;1.80;;;;;;;9.02;66.17;99084.86;2182346;80;33070;-61
2021/05/07 01:58:19;;;;;;;3.08;2.42;;;;;;;9.00;66.05;99081.42;2189568;80;28217;-61
2021/05/07 02:01:22;;;;;;;4.05;3.22;;;;;;;8.94;66.08;99078.67;2219141;80;27651;-62
2021/05/07 02:04:24;;;;;;;5.22;3.27;;;;;;;8.95;66.29;99076.38;2221219;80;28882;-61
2021/05/07 02:07:27;;;;;;;3.08;2.65;;;;;;;8.93;66.29;99076.95;2219944;80;31231;-61
2021/05/07 02:10:31;;;;;;;4.67;3.08;;;;;;;8.88;66.21;99071.91;2185823;80;34088;-62
2021/05/07 02:13:33;;;;;;;3.30;2.42;;;;;;;8.79;66.15;99072.00;2182392;81;28785;-62
2021/05/07 02:16:35;;;;;;;4.62;2.77;;;;;;;8.75;66.42;99081.14;2182535;81;27713;-61
2021/05/07 02:19:38;;;;;;;4.55;2.72;;;;;;;8.72;66.53;99070.65;2145007;80;28829;-61
2021/05/07 02:22:42;;;;;;;6.17;2.95;;;;;;;8.71;66.79;99064.08;2136515;82;32064;-61
2021/05/07 02:25:44;;;;;;;4.25;2.27;;;;;;;8.66;66.87;99069.22;2128141;82;33176;-61
2021/05/07 02:28:47;;;;;;;5.60;2.50;;;;;;;8.66;66.86;99071.05;2149536;82;28847;-61
2021/05/07 02:31:50;;;;;;;3.60;2.20;;;;;;;8.71;67.08;99068.93;2146515;82;27639;-61
2021/05/07 02:34:52;;;;;;;7.95;2.95;;;;;;;8.76;67.29;99071.34;2064749;86;28843;-61
2021/05/07 02:37:54;;;;;;;4.90;2.62;;;;;;;8.79;67.23;99065.78;2064752;86;31170;-61
2021/05/07 02:40:57;;;;;;;8.05;3.05;;;;;;;8.83;67.42;99061.97;2074930;84;33966;-60
2021/05/07 02:43:59;;;;;;;3.98;2.77;;;;;;;8.87;67.29;99066.64;2040661;85;28863;-61
2021/05/07 02:47:04;;;;;;;5.15;2.70;;;;;;;8.88;67.31;99061.22;2040136;87;27655;-61
2021/05/07 02:50:07;;;;;;;;;;;;;;;8.88;67.37;99059.89;2065844;86;28899;-61
2021/05/07 02:53:10;;;;;;;4.17;3.12;;;;;;;8.85;67.23;99052.06;2082820;84;31229;-61
2021/05/07 02:56:12;;;;;;;5.47;3.70;;;;;;;8.81;67.29;99058.08;2102316;84;33985;-61
2021/05/07 02:59:16;;;;;;;4.95;3.25;;;;;;;8.78;67.44;99048.92;2101039;83;30184;-61
2021/05/07 03:02:18;;;;;;;6.10;3.58;;;;;;;8.81;67.51;99055.41;2095762;84;27700;-61
2021/05/07 03:05:21;;;;;;;4.92;2.98;;;;;;;8.84;67.60;99056.17;2067492;85;30059;-61
2021/05/07 03:08:24;;;;;;;10.72;6.35;;;;;;;8.87;67.49;99059.50;2067400;86;31152;-61
2021/05/07 03:11:26;;;;;;;7.00;4.72;;;;;;;8.91;67.60;99057.48;2067528;84;33125;-61
2021/05/07 03:14:29;;;;;;;3.70;2.80;;;;;;;8.91;67.41;99057.03;2098668;84;29748;-62
2021/05/07 03:17:32;;;;;;;4.15;2.50;;;;;;;8.89;67.44;99058.94;2102387;84;27600;-61
2021/05/07 03:20:35;;;;;;;4.22;2.50;;;;;;;8.89;67.27;99058.94;2070857;84;28825;-62
2021/05/07 03:23:37;;;;;;;3.77;2.67;;;;;;;8.87;67.67;99058.17;2090104;84;32053;-61
2021/05/07 03:26:41;;;;;;;3.98;2.70;;;;;;;8.84;67.30;99057.52;2098948;84;33190;-61
2021/05/07 03:29:43;;;;;;;3.80;2.60;;;;;;;8.76;67.25;99068.67;2100981;84;29011;-61
2021/05/07 03:32:45;;;;;;;6.08;2.98;;;;;;;8.73;67.42;99068.86;2087601;84;27725;-61
2021/05/07 03:35:48;;;;;;;5.12;3.00;;;;;;;8.73;67.70;99067.03;2066257;86;28831;-61
2021/05/07 03:38:50;;;;;;;3.80;2.72;;;;;;;8.76;67.79;99074.02;2089127;84;30980;-64
2021/05/07 03:41:52;;;;;;;4.15;2.77;;;;;;;8.75;67.73;99070.95;2097853;84;35434;-60
2021/05/07 03:44:55;;;;;;;3.30;2.47;;;;;;;8.74;67.86;99078.09;2066284;86;28931;-60
2021/05/07 03:47:59;;;;;;;7.00;3.10;;;;;;;8.75;67.82;99074.97;2066305;86;27712;-60
2021/05/07 03:51:01;;;;;;;7.65;3.45;;;;;;;8.76;68.03;99077.52;2066384;84;31185;-60
2021/05/07 03:54:05;;;;;;;5.15;3.72;;;;;;;8.80;68.01;99080.86;2093774;84;32040;-61
2021/05/07 03:57:08;;;;;;;7.78;4.40;;;;;;;8.86;68.41;99076.94;2084211;84;34048;-61
2021/05/07 04:00:12;;;;;;;7.20;4.10;;;;;;;8.92;68.49;99081.45;2063371;84;28880;-60
2021/05/07 04:03:14;;;;;;;5.55;3.55;;;;;;;8.96;68.30;99082.11;2080434;84;27650;-60
2021/05/07 04:06:19;;;;;;;6.95;3.10;;;;;;;9.03;68.58;99083.42;2100234;83;28832;-61
2021/05/07 04:09:29;;;;;;;4.30;3.40;;;;;;;9.11;68.44;99085.60;2100759;84;31213;-61
2021/05/07 04:13:31;;;;;;;7.58;3.52;;;;;;;9.21;68.46;99089.89;2091488;84;33120;-60
2021/05/07 04:15:35;;;;;;;6.35;3.67;;;;;;;9.31;68.35;99099.06;2082463;84;28925;-60
2021/05/07 04:18:38;;;;;;;4.58;3.55;;;;;;;9.39;68.11;99097.23;2101259;84;27736;-60
2021/05/07 04:21:41;;;;;;;4.70;3.75;;;;;;;9.48;68.15;99097.11;2102148;83;29805;-60
2021/05/07 04:24:43;;;;;;;9.88;5.90;;;;;;;9.52;67.85;99092.80;2065754;84;31568;-60
2021/05/07 04:27:47;;;;;;;6.90;4.80;;;;;;;9.52;67.46;99102.16;2063719;86;34444;-61
2021/05/07 04:30:51;;;;;;;3.95;2.87;;;;;;;9.47;67.33;99102.08;2064224;85;28900;-60
2021/05/07 04:33:53;;;;;;;3.40;2.40;;;;;;;9.42;67.29;99109.06;2090807;84;28231;-60
2021/05/07 04:36:56;;;;;;;4.33;2.50;;;;;;;9.37;67.35;99103.98;2102413;84;28651;-60
2021/05/07 04:39:58;;;;;;;5.45;2.72;;;;;;;9.38;67.41;99110.21;2102455;84;31161;-60
2021/05/07 04:43:01;;;;;;;4.37;2.87;;;;;;;9.42;67.44;99102.38;2088419;84;32953;-61
2021/05/07 04:46:04;;;;;;;4.15;3.17;;;;;;;9.48;67.45;99105.98;2067365;86;29022;-60
2021/05/07 04:49:06;;;;;;;5.53;3.58;;;;;;;9.53;67.50;99116.37;2092578;84;27754;-60
2021/05/07 04:52:09;;;;;;;4.58;3.27;;;;;;;9.70;67.71;99118.81;2086078;83;29314;-60
2021/05/07 04:55:11;;;;;;;3.40;3.00;;;;;;;9.84;67.64;99115.23;2067161;86;31164;-61
2021/05/07 04:58:14;;;;;;;3.87;3.00;;;;;;;9.96;67.64;99118.93;2067241;86;33131;-62
2021/05/07 05:01:19;;;;;;;6.35;3.83;;;;;;;10.10;67.61;99117.98;2081276;84;29336;-62
2021/05/07 05:04:23;;;;;;;6.17;4.08;;;;;;;10.15;67.37;99122.56;2092705;84;27621;-62
2021/05/07 05:07:25;;;;;;;6.97;4.40;;;;;;;10.18;67.09;99126.84;2064877;86;29269;-62
2021/05/07 05:10:27;;;;;;;6.42;4.20;;;;;;;10.18;67.04;99134.41;2069508;84;31208;-62
2021/05/07 05:13:30;;;;;;;6.50;4.10;;;;;;;10.20;67.17;99143.66;2069962;85;35496;-62
2021/05/07 05:16:33;;;;;;;5.97;4.62;;;;;;;10.21;67.12;99136.01;2023788;86;29229;-62
2021/05/07 05:19:35;;;;;;;7.80;4.80;;;;;;;10.19;67.09;99134.78;2067621;84;27565;-61
2021/05/07 05:22:38;;;;;;;6.42;4.72;;;;;;;10.13;67.05;99141.03;2088840;85;28833;-62
2021/05/07 05:25:40;;;;;;;6.65;5.90;;;;;;;10.08;67.01;99147.16;2086329;85;31137;-61
2021/05/07 05:28:43;;;;;;;7.65;5.58;;;;;;;10.04;67.11;99149.19;2074475;85;33957;-62
2021/05/07 05:31:45;;;;;;;9.00;5.67;;;;;;;9.96;67.00;99144.34;2054326;86;30329;-62
2021/05/07 05:34:47;;;;;;;7.10;5.42;;;;;;;9.95;66.92;99147.10;2057734;85;27907;-62
2021/05/07 05:37:55;;;;;;;6.35;4.35;;;;;;;9.95;67.15;99145.77;2085391;85;28782;-62
2021/05/07 05:41:06;;;;;;;7.62;6.25;;;;;;;9.96;67.10;99154.17;2088215;85;31993;-62
2021/05/07 05:44:15;;;;;;;8.25;6.83;;;;;;;9.98;67.33;99160.28;2088395;85;29325;-62
2021/05/07 05:47:21;;;;;;;7.45;5.95;;;;;;;10.06;67.51;99157.09;2086438;85;29215;-62
2021/05/07 05:50:29;;;;;;;8.75;6.00;;;;;;;10.16;67.54;99161.75;2086584;85;27718;-62
2021/05/07 05:53:44;;;;;;;12.00;6.45;;;;;;;10.23;67.52;99169.38;2088238;85;28194;-60
2021/05/07 05:56:54;;;;;;;11.38;6.95;;;;;;;10.32;67.53;99172.77;2078463;85;31153;-60
2021/05/07 06:00:02;;;;;;;10.30;6.78;;;;;;;10.40;67.46;99170.95;2080617;83;34046;-60
2021/05/07 06:03:05;;;;;;;10.05;5.62;;;;;;;10.43;67.46;99174.77;2109133;83;29170;-60
2021/05/07 06:06:08;;;;;;;9.75;6.05;;;;;;;10.42;67.02;99178.40;2079050;83;27644;-60
2021/05/07 06:09:11;;;;;;;7.50;4.42;;;;;;;10.39;66.96;99183.95;2067036;85;28843;-60
2021/05/07 06:12:25;;;;;;;8.80;5.03;;;;;;;10.44;66.95;99189.87;2086700;85;32159;-61
2021/05/07 06:15:38;;;;;;;12.00;6.22;;;;;;;10.47;66.95;99186.98;2086979;85;34666;-67
2021/05/07 06:18:46;;;;;;;7.85;4.58;;;;;;;10.52;66.93;99188.02;2076369;84;28223;-67
2021/05/07 06:21:58;;;;;;;6.62;4.70;;;;;;;10.55;66.73;99191.83;2053531;86;27641;-60
2021/05/07 06:25:09;;;;;;;5.25;3.52;;;;;;;10.58;66.81;99189.80;2043560;85;28851;-61
2021/05/07 06:28:22;;;;;;;13.22;8.95;;;;;;;10.58;66.22;99193.81;2051513;86;30482;-61
2021/05/07 06:31:36;;;;;;;11.88;7.67;;;;;;;10.59;66.26;99197.36;2053950;86;34471;-61
2021/05/07 06:34:40;;;;;;;9.33;4.67;;;;;;;10.68;66.47;99196.72;2041718;87;29217;-61
2021/05/07 06:37:42;;;;;;;5.90;4.28;;;;;;;10.77;66.41;99195.23;2053731;86;27667;-61
2021/05/07 06:40:45;;;;;;;6.45;4.50;;;;;;;10.79;66.04;99200.86;2053902;86;28913;-61
2021/05/07 06:43:47;;;;;;;8.93;5.25;;;;;;;10.83;66.01;99206.02;2053989;86;31156;-61
2021/05/07 06:46:49;;;;;;;11.65;6.53;;;;;;;10.89;66.09;99211.80;2053923;86;33258;-61
2021/05/07 06:49:51;;;;;;;6.67;4.58;;;;;;;10.94;65.90;99216.37;2053953;86;30040;-61
2021/05/07 06:52:54;;;;;;;8.00;3.83;;;;;;;10.98;65.99;99222.87;2054058;86;28186;-61
2021/05/07 06:55:56;;;;;;;7.40;4.92;;;;;;;11.06;65.92;99224.52;2053986;86;28882;-62
2021/05/07 06:58:59;;;;;;;5.10;3.42;;;;;;;11.18;65.77;99229.52;2053908;86;32072;-62
2021/05/07 07:02:01;;;;;;;6.55;3.87;;;;;;;11.33;65.38;99227.61;2053874;86;33132;-62
2021/05/07 07:05:06;;;;;;;5.08;3.58;;;;;;;11.38;64.94;99222.29;2053891;86;30059;-61
2021/05/07 07:08:08;;;;;;;4.67;3.47;;;;;;;11.52;65.09;99224.47;2054334;86;27709;-61
2021/05/07 07:11:11;;;;;;;5.62;3.17;;;;;;;11.63;64.65;99233.09;2053937;86;28847;-61
2021/05/07 07:14:14;;;;;;;6.00;3.90;;;;;;;11.62;64.28;99234.06;2053911;86;31152;-61
2021/05/07 07:17:16;;;;;;;4.97;3.75;;;;;;;11.59;64.14;99228.41;2053891;86;33126;-62
2021/05/07 07:20:19;;;;;;;7.87;4.53;;;;;;;11.60;64.29;99229.29;2063028;85;29177;-61
2021/05/07 07:23:22;;;;;;;7.10;4.60;;;;;;;11.62;64.16;99218.81;2077956;85;27716;-61
2021/05/07 07:26:24;;;;;;;4.83;4.10;;;;;;;11.62;64.07;99224.67;2043927;87;28843;-61
2021/05/07 07:29:27;;;;;;;8.83;5.45;;;;;;;11.59;63.98;99226.23;2043817;87;31155;-62
2021/05/07 07:32:30;;;;;;;5.35;4.42;;;;;;;11.61;64.07;99226.98;2043741;85;33134;-62
2021/05/07 07:35:32;;;;;;;5.67;4.47;;;;;;;11.58;63.96;99228.53;2043833;87;30027;-62
2021/05/07 07:38:35;;;;;;;8.10;4.92;;;;;;;11.57;64.02;99230.84;2044029;87;27664;-63
2021/05/07 07:41:37;;;;;;;7.85;5.60;;;;;;;11.57;63.86;99232.19;2043853;85;28127;-62
2021/05/07 07:44:40;;;;;;;7.28;4.40;;;;;;;11.54;63.64;99241.31;2043883;87;31300;-62
2021/05/07 07:47:42;;;;;;;5.97;4.03;;;;;;;11.51;63.66;99250.91;2043924;87;33123;-62
2021/05/07 07:50:45;;;;;;;8.68;4.62;;;;;;;11.43;63.57;99259.50;2043942;87;29156;-63
2021/05/07 07:53:47;;;;;;;7.85;5.17;;;;;;;11.37;63.57;99260.80;2043995;86;27655;-62
2021/05/07 07:56:50;;;;;;;8.03;4.40;;;;;;;11.33;63.74;99267.33;2043893;87;29777;-63
2021/05/07 07:59:53;;;;;;;5.15;3.42;;;;;;;11.33;63.89;99259.78;2044027;87;31150;-62
2021/05/07 08:02:56;;;;;;;6.85;3.87;;;;;;;11.35;63.64;99253.34;2044011;87;33110;-62
2021/05/07 08:05:58;;;;;;;8.05;5.58;;;;;;;11.41;63.55;99257.41;2044049;86;29178;-62
2021/05/07 08:09:01;;;;;;;8.05;5.87;;;;;;;11.47;63.66;99251.63;2044131;87;28044;-62
2021/05/07 08:12:10;;;;;;;6.45;5.00;;;;;;;11.56;63.69;99254.14;2044159;87;29280;-62
2021/05/07 08:15:13;;;;;;;5.58;4.25;;;;;;;11.65;63.41;99258.84;2044150;87;31165;-62
2021/05/07 08:18:16;;;;;;;11.80;7.78;;;;;;;11.72;63.15;99271.83;2044119;87;33122;-62
2021/05/07 08:21:20;;;;;;;10.28;6.15;;;;;;;11.72;63.05;99274.52;2043999;86;29723;-63
2021/05/07 08:24:25;;;;;;;8.88;6.08;;;;;;;11.65;62.75;99283.48;2044149;87;27663;-62
2021/05/07 08:27:27;;;;;;;10.20;5.97;;;;;;;11.54;62.71;99294.47;2077643;85;29842;-62
2021/05/07 08:30:30;;;;;;;8.18;5.47;;;;;;;11.51;62.83;99296.52;2044044;86;31222;-62
2021/05/07 08:33:32;;;;;;;7.60;4.50;;;;;;;11.45;63.01;99291.09;2043944;87;33112;-62
2021/05/07 08:36:34;;;;;;;5.92;4.92;;;;;;;11.40;63.18;99294.11;2044057;87;29134;-62
2021/05/07 08:39:37;;;;;;;8.48;5.70;;;;;;;11.44;63.33;99301.45;2044136;86;27674;-62
2021/05/07 08:42:39;;;;;;;8.18;5.35;;;;;;;11.45;63.32;99307.66;2044120;87;28678;-62
2021/05/07 08:45:41;;;;;;;6.90;4.78;;;;;;;11.43;63.16;99313.60;2044012;86;31161;-62
2021/05/07 08:48:45;;;;;;;8.15;4.45;;;;;;;11.52;63.54;99315.16;2043927;87;33552;-62
2021/05/07 08:51:47;;;;;;;8.95;5.28;;;;;;;11.67;63.24;99334.71;2044000;87;29219;-62
2021/05/07 08:54:50;;;;;;;9.23;5.72;;;;;;;11.76;62.98;99324.28;2044055;87;27671;-62
2021/05/07 08:57:52;;;;;;;7.85;5.05;;;;;;;11.73;62.60;99329.89;2044012;87;28773;-62
2021/05/07 09:00:54;;;;;;;13.58;8.03;;;;;;;11.68;62.62;99330.19;2044097;87;31166;-62
2021/05/07 09:03:57;;;;;;;12.28;5.70;;;;;;;11.62;62.30;99329.30;2043926;86;33207;-61
2021/05/07 09:06:59;;;;;;;7.70;5.50;;;;;;;11.52;62.30;99334.44;2054392;85;29246;-62
2021/05/07 09:10:04;;;;;;;10.53;6.40;;;;;;;11.48;62.05;99340.51;2044062;86;27648;-62
2021/05/07 09:13:09;;;;;;;6.08;5.00;;;;;;;11.55;62.40;99340.94;2044159;87;28839;-62
2021/05/07 09:16:12;;;;;;;6.08;4.22;;;;;;;11.61;62.17;99341.84;2044138;87;31196;-62
2021/05/07 09:19:40;;;;;;;9.43;5.35;;;;;;;11.66;62.13;99351.77;2043950;87;33118;-62
2021/05/07 09:22:43;;;;;;;8.83;5.00;;;;;;;11.77;62.24;99353.71;2113151;84;29169;-62
2021/05/07 09:25:52;;;;;;;7.30;5.08;;;;;;;11.93;62.32;99355.31;2113324;84;27707;-61
2021/05/07 09:28:57;;;;;;;7.30;5.05;;;;;;;12.07;62.08;99364.62;2090813;84;28845;-62
2021/05/07 09:32:01;;;;;;;30.00;10.80;;;;;;;12.14;62.00;99366.38;2113260;84;31148;-61
2021/05/07 09:35:12;;;;;;;14.38;6.17;;;;;;;12.23;61.79;99369.77;2113061;84;34046;-62
2021/05/07 09:41:46;;;;;;;11.05;5.97;;;;;;;12.29;61.20;99377.86;2343097;76;32575;-60
2021/05/07 09:44:48;;;;;;;19.10;7.65;;;;;;;12.19;61.07;99382.16;2303823;77;27685;-61
2021/05/07 09:47:53;;;;;;;13.28;7.10;;;;;;;12.07;61.08;99393.30;2303722;77;31094;-60
2021/05/07 09:51:06;;;;;;;10.10;5.75;;;;;;;11.96;61.15;99397.55;2303630;77;31290;-61
2021/05/07 09:54:09;;;;;;;9.15;5.53;;;;;;;11.86;61.28;99405.38;2303603;77;33122;-61
2021/05/07 09:57:11;;;;;;;11.75;5.90;;;;;;;11.74;61.18;99402.22;2272953;77;28631;-61
2021/05/07 10:00:15;;;;;;;9.68;6.75;;;;;;;11.67;61.41;99407.15;2303763;77;27613;-61
2021/05/07 10:03:17;;;;;;;7.85;5.65;;;;;;;11.61;61.35;99406.22;2303750;77;29716;-61
2021/05/07 10:06:20;;;;;;;6.45;4.80;;;;;;;11.56;61.40;99411.06;2303655;77;31128;-61
2021/05/07 10:09:26;;;;;;;6.22;4.33;;;;;;;11.61;61.30;99410.73;2303563;77;31848;-61
2021/05/07 10:12:29;;;;;;;7.62;4.58;;;;;;;11.74;61.74;99409.42;2303410;77;28845;-61
2021/05/07 10:15:36;;;;;;;5.87;3.95;;;;;;;11.94;61.41;99416.92;2295001;77;27709;-63
2021/05/07 10:18:40;;;;;;;6.47;4.17;;;;;;;12.18;61.71;99422.93;2261813;78;28912;-64
2021/05/07 10:21:46;;;;;;;7.60;4.37;;;;;;;12.35;61.31;99418.19;2261181;78;31119;-63
2021/05/07 10:24:49;;;;;;;4.20;3.40;;;;;;;12.58;61.53;99413.84;2261606;78;32240;-63
2021/05/07 10:27:55;;;;;;;5.65;3.70;;;;;;;12.87;60.65;99415.76;2261942;78;31142;-63
2021/05/07 10:31:09;;;;;;;5.78;3.15;;;;;;;13.33;61.43;99409.25;2261962;78;27659;-62
2021/05/07 10:34:12;;;;;;;5.00;3.10;;;;;;;13.92;61.14;99410.17;2262238;78;28799;-62
2021/05/07 10:37:15;;;;;;;4.50;3.05;;;;;;;14.49;60.06;99404.32;2261808;78;31119;-61
2021/05/07 10:40:24;;;;;;;7.45;3.80;;;;;;;14.93;59.13;99409.80;2263596;78;33173;-61
2021/05/07 10:43:44;;;;;;;6.30;3.60;;;;;;;15.18;58.52;99409.13;2265939;78;29778;-60
2021/05/07 10:47:07;;;;;;;7.55;4.42;;;;;;;15.43;58.27;99401.66;2265577;78;27740;-61
2021/05/07 10:50:15;;;;;;;5.05;3.25;;;;;;;15.86;57.93;99406.14;2265742;78;28821;-60
2021/05/07 10:53:36;;;;;;;6.65;4.50;;;;;;;15.94;56.76;99402.27;2264922;78;33409;-60
2021/05/07 10:56:42;;;;;;;4.10;3.40;;;;;;;15.94;56.29;99403.61;2265069;78;33608;-61
2021/05/07 11:00:12;;;;;;;6.65;4.50;;;;;;;16.00;56.00;99395.47;2265131;78;28160;-61
2021/05/07 11:03:20;;;;;;;14.23;7.95;;;;;;;16.28;56.32;99399.82;2265107;78;27740;-61
2021/05/07 11:06:38;;;;;;;10.00;5.08;;;;;;;16.75;55.27;99399.25;2265040;78;29536;-61
2021/05/07 11:10:09;;;;;;;7.33;5.45;;;;;;;16.75;55.27;99399.25;2148240;82;27758;-61
2021/05/07 11:13:20;;;;;;;4.90;4.40;;;;;;;16.79;54.95;99370.10;2169274;82;33060;-62
2021/05/07 11:20:15;;;;;;;6.65;4.37;;;;;;;17.01;53.61;99392.02;2342860;76;32272;-62
2021/05/07 11:23:37;;;;;;;11.38;7.05;;;;;;;17.04;53.71;99409.81;2302885;77;27641;-63
2021/05/07 11:26:39;;;;;;;17.50;9.20;;;;;;;17.11;53.37;99408.27;2303419;77;29709;-62
2021/05/07 11:29:41;;;;;;;36.23;16.87;;;;;;;17.21;53.36;99406.42;2265196;77;33523;-62
2021/05/07 11:32:44;;;;;;;5.78;3.52;;;;;;;17.30;52.18;99406.07;2260892;78;33328;-63
2021/05/07 11:35:47;;;;;;;16.17;8.08;;;;;;;17.18;52.19;99387.75;2261814;78;28539;-62
2021/05/07 11:38:49;;;;;;;6.35;3.83;;;;;;;17.06;51.85;99397.01;2262040;78;27631;-63
2021/05/07 11:41:52;;;;;;;3.33;3.00;;;;;;;16.92;51.44;99395.52;2262007;78;28808;-62
2021/05/07 11:44:55;;;;;;;5.33;2.95;;;;;;;16.81;51.02;99396.48;2261921;78;32076;-62
2021/05/07 11:47:57;;;;;;;10.65;6.35;;;;;;;16.69;50.61;99395.77;2275344;77;34087;-62
2021/05/07 11:51:08;;;;;;;5.62;3.87;;;;;;;16.63;51.09;99402.56;2301734;77;29272;-62
2021/05/07 11:54:10;;;;;;;4.65;3.58;;;;;;;16.62;50.52;99389.19;2261395;78;27636;-61
2021/05/07 11:57:17;;;;;;;3.55;2.67;;;;;;;16.76;50.54;99398.27;2261765;78;28734;-60
2021/05/07 12:00:21;;;;;;;4.15;3.08;;;;;;;16.96;50.62;99395.64;2260917;78;31075;-60
2021/05/07 12:06:44;;;;;;;4.53;3.65;;;;;;;17.24;49.56;99383.13;2343084;76;32316;-61
2021/05/07 12:09:50;;;;;;;14.70;9.50;;;;;;;17.01;49.01;99398.27;2302773;75;27699;-61
2021/05/07 12:16:07;;;;;;;4.75;3.60;;;;;;;16.64;48.95;99395.31;2343137;76;27678;-62
2021/05/07 12:19:19;;;;;;;11.65;6.70;;;;;;;16.35;49.19;99400.97;2303788;77;27659;-61
2021/05/07 12:22:22;;;;;;;6.30;4.35;;;;;;;16.19;49.56;99402.84;2303557;77;29727;-61
2021/05/07 12:25:27;;;;;;;4.72;3.10;;;;;;;16.20;49.54;99405.03;2303351;77;31124;-61
2021/05/07 12:28:29;;;;;;;3.98;3.27;;;;;;;16.17;49.86;99399.41;2303219;77;34120;-77
2021/05/07 12:31:33;;;;;;;4.17;3.00;;;;;;;16.13;49.53;99408.77;2291148;77;28523;-76
2021/05/07 12:34:35;;;;;;;4.95;3.85;;;;;;;15.94;49.22;99425.73;2268664;77;27696;-74
2021/05/07 12:37:38;;;;;;;4.78;3.77;;;;;;;15.77;49.23;99430.71;2292068;77;28812;-77
2021/05/07 12:40:41;;;;;;;5.67;4.35;;;;;;;15.62;49.53;99428.81;2303548;77;31212;-80
2021/05/07 12:43:51;;;;;;;6.92;4.40;;;;;;;15.51;49.32;99430.22;2276578;77;33568;-79
2021/05/07 12:46:53;;;;;;;4.05;3.65;;;;;;;15.44;50.13;99434.41;2270596;77;28839;-61
2021/05/07 12:49:55;;;;;;;6.05;3.98;;;;;;;15.38;50.08;99426.34;2261855;78;27613;-61
2021/05/07 12:52:57;;;;;;;5.67;4.05;;;;;;;15.31;49.48;99433.23;2286761;77;29307;-61
2021/05/07 12:56:00;;;;;;;5.35;4.53;;;;;;;15.18;49.84;99448.25;2303582;77;31810;-61
2021/05/07 12:59:04;;;;;;;4.47;4.08;;;;;;;15.14;50.16;99449.48;2302822;77;34338;-61
2021/05/07 13:02:08;;;;;;;6.58;4.85;;;;;;;15.14;49.81;99448.13;2289010;77;28859;-62
2021/05/07 13:05:11;;;;;;;4.87;4.35;;;;;;;15.16;50.61;99442.97;2262203;78;27648;-61
2021/05/07 13:08:14;;;;;;;6.42;4.80;;;;;;;15.14;50.81;99452.19;2262184;77;28806;-62
2021/05/07 13:11:16;;;;;;;5.40;4.60;;;;;;;15.13;50.18;99466.17;2269178;77;31138;-61
2021/05/07 13:14:18;;;;;;;4.85;3.35;;;;;;;15.06;49.31;99456.86;2264918;77;33478;-61
2021/05/07 13:17:21;;;;;;;7.58;5.45;;;;;;;15.02;49.20;99458.09;2263890;77;28736;-61
2021/05/07 13:20:25;;;;;;;6.30;4.78;;;;;;;14.92;49.35;99462.53;2301819;77;27666;-62
2021/05/07 13:23:27;;;;;;;7.10;4.33;;;;;;;14.87;49.44;99466.45;2278261;77;28804;-62
2021/05/07 13:26:29;;;;;;;8.23;5.00;;;;;;;14.77;49.39;99460.10;2262138;77;31545;-62
2021/05/07 13:29:32;;;;;;;5.47;3.70;;;;;;;14.60;49.13;99469.50;2269352;77;33171;-62
2021/05/07 13:32:35;;;;;;;7.12;3.72;;;;;;;14.46;49.42;99488.14;2293611;77;29394;-62
2021/05/07 13:35:43;;;;;;;10.58;5.90;;;;;;;14.34;49.85;99501.20;2275928;77;27668;-62
2021/05/07 13:38:41;;;;;;;9.10;6.37;;;;;;;14.18;50.77;99528.50;2272764;77;29719;-62
2021/05/07 13:41:43;;;;;;;8.23;5.10;;;;;;;13.95;51.30;99531.11;2267241;77;33457;-62
2021/05/07 13:44:47;;;;;;;6.78;4.50;;;;;;;13.89;52.25;99533.79;2285347;77;33113;-62
2021/05/07 13:47:49;;;;;;;8.10;5.28;;;;;;;13.85;51.98;99532.30;2291035;77;28713;-62
2021/05/07 13:50:52;;;;;;;11.93;7.72;;;;;;;13.82;52.44;99537.91;2261765;77;27586;-62
2021/05/07 13:53:55;;;;;;;2.05;1.82;;;;;;;13.85;53.07;99556.53;2267017;77;29245;-61
2021/05/07 13:56:58;;;;;;;3.45;3.12;;;;;;;13.64;51.42;99572.46;2260659;78;32500;-62
2021/05/07 14:00:00;;;;;;;4.03;3.60;;;;;;;13.32;51.82;99583.73;2261566;77;34095;-66
2021/05/07 14:03:03;;;;;;;2.33;2.12;;;;;;;12.89;52.06;99595.27;2279134;77;30239;-60
2021/05/07 14:06:08;;;;;;;2.85;2.47;;;;;;;12.52;52.85;99604.56;2261929;77;27625;-60
2021/05/07 14:09:11;;;;;;;2.83;2.22;;;;;;;12.25;53.64;99608.65;2287294;77;29768;-61
2021/05/07 14:12:14;;;;;;;2.52;2.33;;;;;;;12.13;54.33;99608.52;2265613;77;31777;-62
2021/05/07 14:15:16;;;;;;;4.20;3.80;;;;;;;12.10;54.75;99606.04;2295087;77;34359;-61
2021/05/07 14:18:19;;;;;;;4.35;2.90;;;;;;;12.08;55.24;99598.56;2302232;77;28035;-62
2021/05/07 14:21:21;;;;;;;4.85;2.95;;;;;;;12.13;55.52;99609.87;2297595;77;27784;-62
2021/05/07 14:24:24;;;;;;;3.80;2.98;;;;;;;12.20;56.17;99608.09;2273745;77;28685;-62
2021/05/07 14:27:38;;;;;;;2.72;2.45;;;;;;;12.28;56.24;99613.32;2295851;77;30734;-62
2021/05/07 14:30:41;;;;;;;3.10;2.40;;;;;;;12.25;55.90;99620.73;2261668;77;34429;-60
2021/05/07 14:33:43;;;;;;;2.45;2.25;;;;;;;12.31;56.49;99623.02;2265160;77;28857;-61
2021/05/07 14:36:45;;;;;;;4.62;4.00;;;;;;;12.33;56.29;99637.17;2303141;77;27898;-59
2021/05/07 14:39:49;;;;;;;4.28;2.85;;;;;;;12.29;56.59;99649.11;2299132;77;29196;-60
2021/05/07 14:42:51;;;;;;;2.37;1.90;;;;;;;12.33;56.74;99636.33;2302092;77;31213;-59